createdAt,value
2022-10-18T00:01:13.629Z,79.54
2022-10-18T00:03:16.499Z,79.49
2022-10-18T00:05:19.362Z,79.23
2022-10-18T00:07:22.139Z,79.74
2022-10-18T00:09:24.955Z,79.82
2022-10-18T00:11:27.772Z,79.92
2022-10-18T00:13:30.659Z,79.14
2022-10-18T00:15:34.992Z,79.30
2022-10-18T00:17:38.832Z,79.78
2022-10-18T00:19:41.585Z,80.06
2022-10-18T00:23:53.798Z,79.76
2022-10-18T00:26:00.312Z,80.08
2022-10-18T00:28:03.099Z,80.43
2022-10-18T00:30:07.157Z,80.33
2022-10-18T00:32:12.008Z,80.02
2022-10-18T00:34:16.567Z,80.27
2022-10-18T00:36:19.315Z,80.41
2022-10-18T00:38:22.063Z,80.03
2022-10-18T00:40:24.808Z,79.92
2022-10-18T00:42:31.296Z,79.92
2022-10-18T00:45:04.912Z,79.90
2022-10-18T00:47:12.152Z,80.05
2022-10-18T00:49:20.020Z,79.95
2022-10-18T00:51:24.616Z,79.75
2022-10-18T00:53:27.217Z,79.47
2022-10-18T00:55:32.859Z,79.83
2022-10-18T00:57:36.079Z,79.13
2022-10-18T00:59:39.577Z,79.25
2022-10-18T01:01:42.399Z,79.45
2022-10-18T01:03:46.640Z,79.01
2022-10-18T01:05:49.925Z,79.13
2022-10-18T01:08:16.055Z,78.98
2022-10-18T01:10:27.816Z,79.00
2022-10-18T01:12:40.355Z,78.95
2022-10-18T01:14:48.154Z,78.79
2022-10-18T01:16:58.681Z,79.13
2022-10-18T01:19:12.277Z,79.15
2022-10-18T01:21:25.281Z,78.43
2022-10-18T01:23:40.370Z,77.71
2022-10-18T01:25:55.737Z,78.08
2022-10-18T01:28:08.931Z,78.29
2022-10-18T01:30:44.048Z,77.45
2022-10-18T01:32:50.160Z,77.50
2022-10-18T01:34:58.487Z,77.42
2022-10-18T01:37:03.922Z,77.21
2022-10-18T01:39:09.973Z,76.96
2022-10-18T01:41:15.980Z,76.85
2022-10-18T01:43:21.190Z,76.99
2022-10-18T01:45:26.159Z,77.29
2022-10-18T01:47:30.539Z,76.79
2022-10-18T01:49:34.364Z,77.45
2022-10-18T01:51:37.170Z,77.30
2022-10-18T01:53:39.949Z,77.50
2022-10-18T01:55:46.129Z,77.81
2022-10-18T01:58:00.141Z,77.75
2022-10-18T02:00:07.333Z,77.68
2022-10-18T02:02:27.457Z,77.69
2022-10-18T02:04:40.274Z,77.68
2022-10-18T02:06:46.659Z,77.06
2022-10-18T02:08:54.027Z,77.35
2022-10-18T02:11:01.882Z,77.39
2022-10-18T02:13:05.019Z,77.46
2022-10-18T02:15:09.897Z,77.65
2022-10-18T02:17:13.973Z,77.49
2022-10-18T02:19:21.448Z,76.97
2022-10-18T02:21:26.810Z,77.08
2022-10-18T02:23:30.080Z,77.30
2022-10-18T02:25:35.081Z,77.49
2022-10-18T02:27:38.370Z,77.62
2022-10-18T02:29:42.659Z,77.88
2022-10-18T02:31:48.329Z,77.68
2022-10-18T02:33:54.632Z,77.77
2022-10-18T02:36:03.636Z,77.51
2022-10-18T02:38:10.552Z,77.31
2022-10-18T02:40:13.371Z,77.03
2022-10-18T02:42:16.747Z,77.42
2022-10-18T02:44:19.528Z,76.94
2022-10-18T02:46:22.513Z,76.80
2022-10-18T02:48:25.435Z,77.45
2022-10-18T02:50:28.241Z,76.65
2022-10-18T02:52:30.990Z,77.04
2022-10-18T02:54:35.384Z,76.97
2022-10-18T02:56:38.173Z,76.94
2022-10-18T02:58:40.881Z,77.23
2022-10-18T03:00:43.678Z,76.71
2022-10-18T03:02:46.414Z,76.94
2022-10-18T03:04:49.335Z,76.88
2022-10-18T03:06:52.100Z,76.67
2022-10-18T03:08:54.987Z,76.63
2022-10-18T03:10:59.094Z,76.71
2022-10-18T03:13:01.887Z,77.03
2022-10-18T03:15:05.286Z,76.62
2022-10-18T03:17:08.146Z,76.56
2022-10-18T03:19:10.890Z,76.67
2022-10-18T03:21:14.095Z,76.73
2022-10-18T03:23:17.046Z,76.35
2022-10-18T03:25:20.749Z,76.48
2022-10-18T03:27:24.917Z,76.20
2022-10-18T03:29:27.753Z,76.66
2022-10-18T03:33:38.222Z,77.02
2022-10-18T03:35:41.147Z,76.89
2022-10-18T03:37:43.950Z,76.45
2022-10-18T03:39:46.731Z,76.56
2022-10-18T03:41:49.612Z,76.55
2022-10-18T03:43:53.722Z,76.52
2022-10-18T03:45:56.549Z,76.70
2022-10-18T03:47:59.391Z,76.32
2022-10-18T03:50:02.144Z,76.24
2022-10-18T03:52:04.974Z,75.84
2022-10-18T03:54:07.712Z,76.23
2022-10-18T03:56:10.560Z,74.77
2022-10-18T03:58:13.325Z,75.21
2022-10-18T04:00:17.579Z,75.96
2022-10-18T04:02:20.351Z,76.19
2022-10-18T04:04:23.314Z,76.18
2022-10-18T04:06:26.079Z,75.38
2022-10-18T04:08:28.824Z,75.87
2022-10-18T04:10:31.965Z,76.09
2022-10-18T04:12:34.937Z,75.27
2022-10-18T04:14:37.780Z,76.15
2022-10-18T04:16:41.841Z,76.23
2022-10-18T04:18:44.608Z,76.57
2022-10-18T04:20:47.369Z,76.63
2022-10-18T04:22:52.682Z,76.68
2022-10-18T04:24:56.748Z,76.37
2022-10-18T04:26:59.490Z,76.27
2022-10-18T04:29:02.344Z,76.42
2022-10-18T04:31:05.205Z,76.25
2022-10-18T04:33:09.331Z,76.60
2022-10-18T04:35:12.184Z,76.82
2022-10-18T04:37:14.898Z,76.97
2022-10-18T04:39:17.838Z,76.73
2022-10-18T04:41:20.634Z,76.84
2022-10-18T04:43:23.456Z,76.85
2022-10-18T04:45:26.204Z,76.75
2022-10-18T04:47:29.144Z,77.10
2022-10-18T04:49:33.838Z,76.91
2022-10-18T04:51:36.413Z,76.73
2022-10-18T04:53:39.207Z,76.97
2022-10-18T04:55:44.679Z,77.39
2022-10-18T04:57:47.490Z,77.17
2022-10-18T04:59:50.263Z,77.29
2022-10-18T05:01:53.075Z,77.18
2022-10-18T05:03:56.338Z,77.47
2022-10-18T05:06:02.711Z,77.48
2022-10-18T05:08:06.831Z,77.68
2022-10-18T05:10:10.474Z,77.41
2022-10-18T05:12:13.233Z,77.56
2022-10-18T05:14:15.959Z,77.73
2022-10-18T05:16:18.787Z,77.93
2022-10-18T05:18:21.651Z,78.02
2022-10-18T05:20:24.425Z,78.27
2022-10-18T05:22:29.605Z,78.29
2022-10-18T05:24:32.603Z,78.26
2022-10-18T05:26:35.399Z,77.82
2022-10-18T05:28:40.141Z,78.20
2022-10-18T05:30:43.605Z,78.31
2022-10-18T05:32:46.393Z,77.99
2022-10-18T05:34:49.148Z,78.47
2022-10-18T05:36:51.933Z,78.46
2022-10-18T05:38:58.664Z,78.64
2022-10-18T05:41:05.375Z,78.73
2022-10-18T05:43:08.216Z,78.75
2022-10-18T05:45:11.305Z,78.38
2022-10-18T05:47:14.412Z,78.84
2022-10-18T05:49:17.269Z,78.74
2022-10-18T05:51:20.365Z,78.86
2022-10-18T05:53:36.359Z,78.47
2022-10-18T05:55:41.151Z,78.49
2022-10-18T05:57:43.904Z,78.80
2022-10-18T05:59:46.735Z,78.87
2022-10-18T06:01:49.514Z,78.95
2022-10-18T06:03:52.418Z,79.05
2022-10-18T06:06:00.452Z,79.11
2022-10-18T06:08:05.323Z,78.82
2022-10-18T06:10:12.296Z,77.60
2022-10-18T06:12:16.470Z,78.23
2022-10-18T06:14:19.318Z,78.68
2022-10-18T06:16:26.215Z,79.73
2022-10-18T06:18:31.334Z,79.05
2022-10-18T06:20:34.090Z,79.18
2022-10-18T06:22:36.889Z,79.70
2022-10-18T06:24:39.851Z,79.88
2022-10-18T06:26:42.610Z,79.93
2022-10-18T06:28:46.842Z,80.17
2022-10-18T06:30:49.862Z,80.13
2022-10-18T06:32:52.578Z,79.91
2022-10-18T06:34:55.357Z,79.89
2022-10-18T06:36:58.855Z,79.58
2022-10-18T06:39:02.487Z,79.36
2022-10-18T06:41:06.608Z,79.52
2022-10-18T06:43:20.507Z,80.18
2022-10-18T06:45:25.640Z,80.34
2022-10-18T06:47:28.390Z,80.14
2022-10-18T06:49:31.208Z,80.19
2022-10-18T06:51:34.007Z,80.12
2022-10-18T06:53:44.085Z,79.79
2022-10-18T06:55:51.370Z,79.94
2022-10-18T06:57:54.296Z,80.03
2022-10-18T06:59:57.059Z,80.14
2022-10-18T07:02:01.275Z,79.94
2022-10-18T07:04:04.483Z,80.16
2022-10-18T07:06:09.694Z,79.89
2022-10-18T07:08:12.414Z,80.18
2022-10-18T07:10:15.192Z,79.74
2022-10-18T07:12:18.002Z,80.00
2022-10-18T07:14:20.786Z,80.13
2022-10-18T07:16:23.582Z,80.18
2022-10-18T07:18:28.452Z,80.27
2022-10-18T07:20:31.271Z,80.67
2022-10-18T07:22:34.032Z,80.87
2022-10-18T07:24:36.770Z,81.11
2022-10-18T07:26:39.531Z,81.69
2022-10-18T07:28:42.978Z,81.60
2022-10-18T07:30:45.754Z,81.75
2022-10-18T07:32:48.558Z,81.62
2022-10-18T07:34:52.653Z,81.58
2022-10-18T07:36:55.360Z,81.54
2022-10-18T07:38:58.227Z,81.18
2022-10-18T07:41:02.262Z,81.43
2022-10-18T07:43:06.239Z,82.03
2022-10-18T07:45:12.427Z,81.95
2022-10-18T07:47:15.207Z,82.10
2022-10-18T07:49:17.994Z,82.13
2022-10-18T07:51:22.734Z,82.07
2022-10-18T07:53:25.529Z,81.92
2022-10-18T07:55:28.319Z,82.45
2022-10-18T07:57:31.402Z,82.36
2022-10-18T07:59:34.509Z,82.12
2022-10-18T08:01:38.377Z,82.45
2022-10-18T08:03:42.239Z,82.27
2022-10-18T08:05:44.971Z,82.20
2022-10-18T08:07:49.115Z,81.89
2022-10-18T08:09:51.920Z,82.28
2022-10-18T08:11:54.689Z,82.20
2022-10-18T08:13:57.437Z,82.50
2022-10-18T08:16:01.230Z,82.33
2022-10-18T08:18:04.167Z,82.42
2022-10-18T08:20:12.616Z,82.67
2022-10-18T08:22:30.010Z,82.63
2022-10-18T08:24:34.091Z,82.83
2022-10-18T08:26:36.990Z,82.51
2022-10-18T08:28:41.708Z,82.54
2022-10-18T08:30:46.422Z,83.33
2022-10-18T08:32:49.122Z,83.19
2022-10-18T08:34:52.111Z,83.14
2022-10-18T08:36:54.863Z,82.98
2022-10-18T08:38:57.601Z,83.00
2022-10-18T08:41:03.479Z,83.09
2022-10-18T08:43:11.549Z,83.34
2022-10-18T08:45:30.081Z,82.95
2022-10-18T08:47:40.098Z,82.88
2022-10-18T08:49:47.557Z,82.09
2022-10-18T08:51:52.689Z,82.50
2022-10-18T08:54:03.915Z,82.70
2022-10-18T08:56:14.706Z,82.19
2022-10-18T08:58:21.436Z,82.44
2022-10-18T09:00:26.311Z,82.19
2022-10-18T09:02:43.793Z,81.47
2022-10-18T09:04:53.218Z,81.80
2022-10-18T09:07:13.064Z,82.14
2022-10-18T09:09:29.136Z,82.62
2022-10-18T09:11:47.114Z,82.41
2022-10-18T09:14:03.538Z,82.62
2022-10-18T09:16:08.939Z,82.73
2022-10-18T09:18:23.807Z,82.14
2022-10-18T09:20:29.696Z,82.45
2022-10-18T09:22:43.102Z,82.17
2022-10-18T09:24:49.899Z,81.21
2022-10-18T09:26:58.831Z,81.58
2022-10-18T09:29:14.272Z,81.79
2022-10-18T09:31:23.035Z,81.11
2022-10-18T09:33:46.778Z,80.89
2022-10-18T09:35:54.610Z,81.47
2022-10-18T09:38:06.609Z,81.03
2022-10-18T09:40:19.125Z,80.97
2022-10-18T09:42:29.260Z,81.16
2022-10-18T09:44:37.468Z,81.25
2022-10-18T09:46:45.322Z,81.14
2022-10-18T09:48:51.846Z,81.07
2022-10-18T09:50:59.167Z,81.33
2022-10-18T09:53:09.221Z,80.91
2022-10-18T09:55:19.449Z,80.84
2022-10-18T09:57:30.485Z,80.46
2022-10-18T09:59:41.051Z,80.03
2022-10-18T10:01:43.991Z,79.93
2022-10-18T10:03:46.762Z,79.53
2022-10-18T10:06:03.540Z,79.43
2022-10-18T10:08:06.350Z,79.87
2022-10-18T10:10:15.950Z,79.72
2022-10-18T10:12:31.648Z,79.28
2022-10-18T10:14:44.635Z,80.48
2022-10-18T10:16:52.864Z,80.16
2022-10-18T10:18:55.988Z,80.06
2022-10-18T10:21:00.695Z,79.69
2022-10-18T10:23:09.950Z,79.66
2022-10-18T10:25:23.598Z,79.05
2022-10-18T10:27:34.582Z,78.84
2022-10-18T10:29:53.701Z,79.02
2022-10-18T10:32:04.524Z,77.94
2022-10-18T10:34:20.066Z,77.88
2022-10-18T10:36:22.934Z,77.47
2022-10-18T10:38:27.964Z,77.11
2022-10-18T10:40:31.858Z,76.67
2022-10-18T10:42:39.262Z,76.65
2022-10-18T10:44:55.461Z,76.44
2022-10-18T10:46:58.891Z,76.30
2022-10-18T10:49:34.914Z,76.35
2022-10-18T10:51:31.274Z,76.21
2022-10-18T10:53:45.021Z,76.16
2022-10-18T10:55:54.930Z,76.59
2022-10-18T10:57:59.986Z,76.03
2022-10-18T11:00:02.916Z,75.39
2022-10-18T11:02:26.968Z,75.32
2022-10-18T11:04:31.333Z,75.31
2022-10-18T11:06:43.937Z,75.35
2022-10-18T11:08:47.175Z,76.03
2022-10-18T11:11:06.212Z,75.77
2022-10-18T11:13:24.180Z,75.91
2022-10-18T11:15:32.535Z,75.98
2022-10-18T11:17:40.527Z,75.98
2022-10-18T11:19:59.932Z,75.58
2022-10-18T11:22:07.574Z,75.80
2022-10-18T11:24:16.969Z,75.96
2022-10-18T11:26:39.395Z,75.81
2022-10-18T11:29:00.484Z,75.69
2022-10-18T11:31:13.283Z,75.62
2022-10-18T11:33:33.663Z,74.80
2022-10-18T11:35:53.418Z,74.90
2022-10-18T11:38:11.949Z,74.49
2022-10-18T11:40:32.613Z,73.68
2022-10-18T11:42:48.526Z,74.61
2022-10-18T11:45:04.080Z,73.87
2022-10-18T11:47:14.890Z,73.63
2022-10-18T11:49:30.809Z,73.85
2022-10-18T11:52:07.130Z,73.50
2022-10-18T11:54:26.489Z,73.84
2022-10-18T11:56:38.306Z,73.77
2022-10-18T11:58:54.462Z,74.05
2022-10-18T12:01:04.411Z,73.76
2022-10-18T12:03:23.453Z,73.78
2022-10-18T12:05:27.008Z,73.90
2022-10-18T12:07:33.833Z,73.99
2022-10-18T12:09:39.977Z,74.26
2022-10-18T12:11:49.399Z,73.59
2022-10-18T12:13:58.789Z,73.83
2022-10-18T12:16:04.977Z,74.17
2022-10-18T12:18:14.202Z,74.08
2022-10-18T12:20:24.031Z,74.38
2022-10-18T12:22:33.872Z,74.37
2022-10-18T12:24:37.941Z,74.04
2022-10-18T12:26:40.891Z,74.50
2022-10-18T12:28:55.776Z,74.09
2022-10-18T12:31:00.580Z,74.25
2022-10-18T12:33:27.044Z,74.25
2022-10-18T12:35:35.885Z,73.90
2022-10-18T12:38:08.977Z,72.67
2022-10-18T12:40:20.322Z,72.31
2022-10-18T12:42:26.207Z,72.88
2022-10-18T12:44:32.234Z,72.94
2022-10-18T12:46:46.641Z,72.50
2022-10-18T12:49:03.911Z,72.56
2022-10-18T12:51:14.462Z,72.21
2022-10-18T12:53:21.319Z,72.42
2022-10-18T12:55:32.452Z,72.38
2022-10-18T12:58:21.705Z,72.34
2022-10-18T13:00:55.594Z,72.53
2022-10-18T13:03:32.025Z,72.59
2022-10-18T13:05:57.969Z,71.33
2022-10-18T13:08:22.773Z,71.43
2022-10-18T13:10:38.083Z,71.55
2022-10-18T13:12:59.383Z,71.69
2022-10-18T13:15:24.742Z,71.34
2022-10-18T13:17:35.395Z,71.83
2022-10-18T13:19:58.070Z,71.79
2022-10-18T13:22:29.450Z,72.02
2022-10-18T13:24:38.856Z,71.86
2022-10-18T13:26:58.147Z,72.47
2022-10-18T13:29:31.484Z,72.24
2022-10-18T13:31:41.054Z,72.35
2022-10-18T13:33:44.083Z,72.34
2022-10-18T13:35:52.687Z,71.67
2022-10-18T13:38:00.809Z,72.43
2022-10-18T13:40:17.189Z,72.43
2022-10-18T13:42:30.601Z,72.23
2022-10-18T13:44:37.704Z,72.51
2022-10-18T13:47:20.513Z,71.94
2022-10-18T13:49:35.982Z,71.07
2022-10-18T13:51:50.375Z,71.42
2022-10-18T13:54:02.091Z,71.59
2022-10-18T13:56:34.239Z,71.29
2022-10-18T13:58:53.884Z,71.22
2022-10-18T14:01:16.894Z,71.98
2022-10-18T14:03:57.062Z,71.90
2022-10-18T14:06:07.424Z,71.57
2022-10-18T14:08:16.653Z,71.76
2022-10-18T14:10:43.309Z,71.84
2022-10-18T14:12:54.622Z,72.42
2022-10-18T14:15:04.369Z,72.13
2022-10-18T14:17:18.064Z,71.89
2022-10-18T14:19:30.078Z,72.03
2022-10-18T14:21:39.272Z,72.15
2022-10-18T14:23:45.484Z,72.53
2022-10-18T14:25:49.719Z,72.50
2022-10-18T14:28:13.770Z,72.88
2022-10-18T14:30:19.036Z,73.10
2022-10-18T14:32:28.495Z,72.16
2022-10-18T14:34:31.374Z,71.92
2022-10-18T14:36:40.879Z,72.28
2022-10-18T14:38:51.280Z,72.87
2022-10-18T14:41:06.191Z,72.48
2022-10-18T14:43:12.156Z,72.62
2022-10-18T14:45:20.264Z,72.41
2022-10-18T14:47:25.399Z,72.21
2022-10-18T14:49:28.768Z,72.32
2022-10-18T14:51:36.429Z,72.75
2022-10-18T14:53:41.772Z,72.97
2022-10-18T14:55:44.931Z,72.59
2022-10-18T14:57:49.158Z,72.53
2022-10-18T14:59:57.987Z,72.91
2022-10-18T15:02:05.388Z,73.18
2022-10-18T15:04:11.730Z,73.73
2022-10-18T15:06:17.928Z,73.69
2022-10-18T15:08:21.561Z,73.66
2022-10-18T15:10:28.286Z,73.69
2022-10-18T15:12:36.832Z,73.47
2022-10-18T15:14:51.899Z,73.55
2022-10-18T15:17:00.078Z,73.48
2022-10-18T15:19:06.362Z,73.35
2022-10-18T15:21:11.295Z,73.88
2022-10-18T15:23:22.254Z,74.13
2022-10-18T15:25:31.788Z,74.46
2022-10-18T15:27:39.102Z,74.46
2022-10-18T15:29:43.646Z,75.04
2022-10-18T15:31:48.931Z,75.40
2022-10-18T15:33:52.279Z,75.73
2022-10-18T15:35:55.596Z,75.53
2022-10-18T15:38:00.117Z,75.71
2022-10-18T15:40:19.288Z,76.11
2022-10-18T15:42:40.474Z,75.89
2022-10-18T15:44:50.836Z,76.06
2022-10-18T15:46:58.098Z,76.44
2022-10-18T15:49:48.283Z,76.48
2022-10-18T15:52:12.243Z,77.14
2022-10-18T15:54:19.286Z,77.21
2022-10-18T15:56:30.683Z,77.50
2022-10-18T15:58:41.285Z,77.40
2022-10-18T16:00:44.769Z,77.78
2022-10-18T16:02:48.938Z,78.01
2022-10-18T16:04:51.707Z,78.35
2022-10-18T16:06:55.479Z,78.31
2022-10-18T16:08:58.558Z,78.99
2022-10-18T16:11:01.469Z,79.24
2022-10-18T16:13:04.204Z,79.68
2022-10-18T16:15:07.874Z,79.69
2022-10-18T16:17:16.774Z,80.49
2022-10-18T16:19:21.251Z,80.69
2022-10-18T16:21:25.448Z,81.75
2022-10-18T16:23:29.473Z,82.53
2022-10-18T16:25:32.363Z,83.38
2022-10-18T16:27:35.386Z,83.77
2022-10-18T16:29:38.208Z,83.85
2022-10-18T16:31:41.027Z,84.14
2022-10-18T16:33:43.827Z,83.90
2022-10-18T16:35:47.952Z,84.18
2022-10-18T16:37:50.899Z,84.72
2022-10-18T16:39:53.658Z,85.31
2022-10-18T16:41:56.414Z,84.43
2022-10-18T16:43:59.151Z,83.98
2022-10-18T16:46:02.864Z,84.36
2022-10-18T16:48:06.579Z,84.25
2022-10-18T16:50:15.792Z,84.09
2022-10-18T16:52:19.816Z,83.82
2022-10-18T16:54:22.904Z,83.98
2022-10-18T16:56:28.158Z,83.37
2022-10-18T16:58:33.290Z,83.37
2022-10-18T17:00:36.068Z,83.12
2022-10-18T17:02:38.880Z,83.49
2022-10-18T17:04:41.981Z,83.25
2022-10-18T17:06:44.927Z,83.51
2022-10-18T17:08:50.305Z,83.34
2022-10-18T17:10:55.315Z,83.24
2022-10-18T17:12:58.378Z,83.36
2022-10-18T17:15:01.150Z,83.43
2022-10-18T17:17:04.088Z,82.88
2022-10-18T17:19:09.119Z,83.25
2022-10-18T17:21:11.991Z,83.43
2022-10-18T17:23:15.190Z,83.20
2022-10-18T17:25:20.313Z,83.09
2022-10-18T17:27:23.233Z,83.40
2022-10-18T17:29:25.963Z,82.69
2022-10-18T17:31:28.985Z,82.97
2022-10-18T17:33:31.781Z,83.15
2022-10-18T17:35:34.715Z,82.68
2022-10-18T17:37:41.335Z,82.49
2022-10-18T17:39:45.461Z,82.84
2022-10-18T17:41:50.453Z,82.71
2022-10-18T17:43:53.294Z,82.84
2022-10-18T17:45:57.385Z,82.89
2022-10-18T17:48:00.132Z,82.69
2022-10-18T17:50:02.945Z,82.37
2022-10-18T17:52:07.147Z,82.80
2022-10-18T17:54:10.114Z,83.01
2022-10-18T17:56:13.651Z,83.00
2022-10-18T17:58:17.803Z,82.86
2022-10-18T18:00:20.727Z,82.72
2022-10-18T18:02:23.465Z,83.09
2022-10-18T18:04:26.257Z,83.32
2022-10-18T18:06:31.667Z,82.76
2022-10-18T18:08:34.499Z,83.11
2022-10-18T18:10:37.435Z,82.72
2022-10-18T18:12:40.271Z,82.82
2022-10-18T18:14:44.475Z,82.60
2022-10-18T18:16:48.605Z,83.26
2022-10-18T18:18:52.795Z,83.02
2022-10-18T18:20:55.585Z,83.28
2022-10-18T18:23:07.872Z,82.92
2022-10-18T18:25:11.155Z,82.90
2022-10-18T18:27:14.042Z,82.76
2022-10-18T18:29:17.101Z,82.83
2022-10-18T18:31:23.827Z,82.54
2022-10-18T18:33:26.618Z,82.76
2022-10-18T18:35:29.574Z,83.15
2022-10-18T18:37:32.687Z,82.54
2022-10-18T18:39:36.135Z,82.32
2022-10-18T18:41:38.925Z,82.10
2022-10-18T18:43:43.759Z,82.04
2022-10-18T18:45:51.855Z,81.78
2022-10-18T18:47:55.969Z,82.33
2022-10-18T18:49:58.787Z,82.24
2022-10-18T18:52:01.692Z,81.59
2022-10-18T18:54:05.048Z,81.69
2022-10-18T18:56:10.683Z,81.81
2022-10-18T18:58:16.515Z,81.57
2022-10-18T19:00:19.479Z,82.03
2022-10-18T19:02:22.314Z,81.85
2022-10-18T19:04:26.461Z,81.72
2022-10-18T19:06:31.284Z,81.90
2022-10-18T19:08:40.087Z,81.60
2022-10-18T19:10:48.953Z,81.67
2022-10-18T19:12:51.723Z,81.49
2022-10-18T19:14:54.526Z,81.54
2022-10-18T19:16:58.946Z,81.47
2022-10-18T19:19:04.859Z,81.77
2022-10-18T19:21:08.990Z,81.98
2022-10-18T19:23:14.611Z,81.75
2022-10-18T19:25:17.667Z,82.23
2022-10-18T19:27:20.421Z,81.96
2022-10-18T19:29:25.295Z,82.62
2022-10-18T19:31:28.206Z,82.62
2022-10-18T19:33:41.489Z,82.01
2022-10-18T19:35:53.753Z,82.27
2022-10-18T19:37:57.887Z,82.29
2022-10-18T19:40:00.800Z,82.67
2022-10-18T19:42:08.824Z,83.04
2022-10-18T19:44:11.682Z,82.91
2022-10-18T19:46:14.453Z,83.10
2022-10-18T19:48:17.282Z,82.98
2022-10-18T19:50:22.316Z,82.95
2022-10-18T19:52:28.333Z,83.17
2022-10-18T19:54:32.502Z,83.09
2022-10-18T19:56:35.337Z,83.42
2022-10-18T19:58:38.089Z,83.29
2022-10-18T20:00:40.856Z,83.03
2022-10-18T20:02:43.580Z,82.47
2022-10-18T20:04:46.317Z,82.29
2022-10-18T20:06:49.161Z,82.53
2022-10-18T20:08:52.155Z,81.81
2022-10-18T20:10:57.866Z,82.03
2022-10-18T20:13:00.661Z,81.91
2022-10-18T20:15:03.583Z,81.55
2022-10-18T20:17:06.414Z,81.76
2022-10-18T20:19:09.424Z,81.53
2022-10-18T20:21:13.876Z,82.13
2022-10-18T20:23:17.221Z,82.27
2022-10-18T20:25:19.967Z,82.40
2022-10-18T20:27:24.405Z,82.65
2022-10-18T20:29:27.158Z,82.21
2022-10-18T20:31:31.407Z,82.12
2022-10-18T20:33:37.078Z,81.71
2022-10-18T20:35:39.876Z,81.80
2022-10-18T20:37:42.619Z,81.29
2022-10-18T20:39:45.525Z,81.19
2022-10-18T20:41:49.196Z,80.98
2022-10-18T20:43:54.748Z,81.52
2022-10-18T20:45:58.469Z,81.74
2022-10-18T20:48:01.203Z,82.06
2022-10-18T20:50:04.570Z,82.15
2022-10-18T20:52:07.420Z,82.43
2022-10-18T20:54:11.113Z,82.40
2022-10-18T20:56:16.212Z,82.69
2022-10-18T20:58:20.292Z,82.90
2022-10-18T21:00:24.386Z,83.03
2022-10-18T21:02:27.148Z,83.15
2022-10-18T21:04:30.075Z,83.50
2022-10-18T21:06:34.767Z,83.23
2022-10-18T21:08:37.851Z,83.45
2022-10-18T21:10:40.617Z,83.41
2022-10-18T21:12:43.383Z,83.42
2022-10-18T21:14:46.161Z,83.29
2022-10-18T21:16:51.447Z,83.37
2022-10-18T21:18:54.769Z,83.20
2022-10-18T21:21:07.845Z,83.02
2022-10-18T21:23:14.842Z,83.51
2022-10-18T21:25:17.607Z,82.70
2022-10-18T21:27:20.362Z,82.86
2022-10-18T21:29:24.765Z,83.03
2022-10-18T21:31:31.630Z,82.83
2022-10-18T21:33:35.928Z,82.93
2022-10-18T21:35:43.429Z,83.02
2022-10-18T21:37:46.226Z,83.14
2022-10-18T21:39:49.191Z,82.99
2022-10-18T21:41:52.448Z,82.74
2022-10-18T21:43:56.351Z,82.72
2022-10-18T21:46:00.518Z,82.88
2022-10-18T21:48:04.174Z,82.69
2022-10-18T21:50:09.127Z,83.09
2022-10-18T21:52:11.936Z,82.72
2022-10-18T21:54:16.868Z,82.64
2022-10-18T21:56:21.447Z,82.77
2022-10-18T21:58:24.170Z,82.88
2022-10-18T22:00:29.187Z,83.19
2022-10-18T22:02:32.064Z,83.19
2022-10-18T22:04:35.783Z,82.96
2022-10-18T22:06:39.943Z,82.85
2022-10-18T22:08:44.001Z,82.49
2022-10-18T22:10:46.978Z,82.45
2022-10-18T22:12:49.773Z,82.47
2022-10-18T22:14:52.503Z,82.51
2022-10-18T22:16:55.253Z,82.42
2022-10-18T22:18:59.514Z,82.36
2022-10-18T22:21:08.234Z,82.64
2022-10-18T22:23:12.927Z,82.20
2022-10-18T22:25:15.778Z,82.23
2022-10-18T22:27:18.533Z,82.26
2022-10-18T22:29:22.625Z,81.90
2022-10-18T22:31:27.687Z,81.96
2022-10-18T22:33:30.961Z,81.85
2022-10-18T22:35:34.234Z,82.16
2022-10-18T22:37:37.242Z,82.01
2022-10-18T22:39:41.450Z,82.30
2022-10-18T22:41:45.075Z,82.28
2022-10-18T22:43:48.199Z,81.83
2022-10-18T22:45:50.901Z,82.40
2022-10-18T22:47:53.654Z,81.89
2022-10-18T22:49:56.366Z,82.11
2022-10-18T22:51:59.211Z,82.12
2022-10-18T22:54:01.974Z,82.29
2022-10-18T22:56:07.185Z,82.34
2022-10-18T22:58:09.943Z,82.28
2022-10-18T23:00:13.801Z,82.21
2022-10-18T23:02:16.578Z,82.13
2022-10-18T23:04:19.315Z,81.72
2022-10-18T23:06:25.113Z,81.65
2022-10-18T23:08:28.547Z,81.35
2022-10-18T23:10:31.508Z,81.90
2022-10-18T23:12:35.934Z,81.20
2022-10-18T23:14:38.870Z,81.37
2022-10-18T23:16:41.658Z,81.39
2022-10-18T23:18:44.824Z,81.64
2022-10-18T23:20:47.716Z,81.42
2022-10-18T23:22:50.543Z,81.50
2022-10-18T23:24:53.374Z,81.05
2022-10-18T23:26:56.102Z,81.20
2022-10-18T23:29:00.284Z,81.37
2022-10-18T23:31:10.016Z,81.54
2022-10-18T23:33:12.764Z,81.26
2022-10-18T23:35:15.665Z,81.48
2022-10-18T23:37:18.567Z,81.54
2022-10-18T23:39:21.357Z,81.44
2022-10-18T23:41:24.589Z,81.40
2022-10-18T23:43:27.653Z,81.67
2022-10-18T23:45:31.758Z,81.99
2022-10-18T23:47:34.706Z,81.81
2022-10-18T23:49:37.772Z,81.69
2022-10-18T23:51:40.505Z,81.34
2022-10-18T23:53:43.460Z,81.49
2022-10-18T23:55:56.593Z,81.91
2022-10-18T23:57:59.624Z,81.65
